Time;durP1;ratioP1;P1;durP2;ratioP2;P2;SDS_P1;SDS_P2;PMS_P1;PMS_P2;Temp;Humidity;BMP_temperature;BMP_pressure;BME280_temperature;BME280_humidity;BME280_pressure;Samples;Min_cycle;Max_cycle;Signal;HPM_P1;HPM_P2
2021/07/22 00:14:14;;;;;;;4.30;1.75;;;;;;;23.34;44.17;101783.28;1213490;23;21452;-81
2021/07/22 00:48:19;;;;;;;5.68;2.00;;;;;;;22.67;45.21;101771.19;1210576;23;21484;-80
2021/07/22 01:33:36;;;;;;;9.70;2.90;;;;;;;21.82;48.41;101758.06;1151497;22;20167;-79
2021/07/22 02:07:27;;;;;;;7.70;2.60;;;;;;;21.20;47.63;101753.22;1219753;22;21445;-81
2021/07/22 02:13:19;;;;;;;7.18;2.83;;;;;;;21.13;47.88;101762.44;1219544;22;21542;-79
2021/07/22 02:33:46;;;;;;;5.25;1.95;;;;;;;20.80;49.15;101764.97;1148525;22;20184;-79
2021/07/22 02:39:40;;;;;;;4.70;1.88;;;;;;;20.69;48.12;101760.19;1225931;22;21485;-81
2021/07/22 02:54:56;;;;;;;6.97;2.47;;;;;;;20.44;48.46;101749.84;1225497;22;21528;-82
2021/07/22 03:07:05;;;;;;;5.22;2.03;;;;;;;20.24;48.69;101752.56;1229559;22;21512;-81
2021/07/22 03:22:24;;;;;;;6.85;3.05;;;;;;;19.83;50.24;101744.69;1229070;22;21476;-81
2021/07/22 03:25:41;;;;;;;6.07;2.15;;;;;;;19.73;50.26;101748.69;1225303;22;21403;-82
2021/07/22 03:34:49;;;;;;;5.63;2.42;;;;;;;19.62;50.71;101743.00;1225816;22;21610;-82
2021/07/22 04:02:30;;;;;;;5.78;2.05;;;;;;;19.43;50.93;101746.41;1228867;22;22028;-81
2021/07/22 04:05:23;;;;;;;7.20;2.55;;;;;;;19.41;51.09;101747.38;1223208;22;21526;-81
2021/07/22 04:19:50;;;;;;;5.22;2.55;;;;;;;19.27;51.56;101744.50;1221814;22;21493;-82
2021/07/22 04:23:05;;;;;;;5.35;2.10;;;;;;;19.23;51.36;101748.19;1222389;22;21480;-81
2021/07/22 04:29:04;;;;;;;5.47;2.30;;;;;;;19.19;51.56;101745.66;1223825;22;21508;-81
2021/07/22 04:34:57;;;;;;;9.00;2.97;;;;;;;19.18;53.39;101745.72;1155487;22;20194;-81
2021/07/22 05:09:33;;;;;;;7.25;3.13;;;;;;;19.34;53.24;101744.16;1226387;22;21517;-81
2021/07/22 05:12:48;;;;;;;6.80;3.03;;;;;;;19.39;52.92;101749.25;1211841;22;21320;-81
2021/07/22 05:36:19;;;;;;;8.05;3.90;;;;;;;19.62;53.89;101757.13;1208274;22;21456;-81
2021/07/22 05:45:24;;;;;;;11.73;4.60;;;;;;;19.77;54.99;101758.22;1220847;22;21502;-81
2021/07/22 05:48:16;;;;;;;8.52;3.45;;;;;;;19.82;54.74;101753.59;1219424;22;21480;-81
2021/07/22 05:54:02;;;;;;;7.82;3.30;;;;;;;19.91;55.17;101750.50;1228852;22;21469;-81
2021/07/22 06:02:49;;;;;;;5.32;2.47;;;;;;;20.11;54.89;101754.03;1228207;22;21601;-81
2021/07/22 06:27:16;;;;;;;3.30;1.83;;;;;;;20.76;54.41;101746.59;1225870;22;21993;-80
2021/07/22 06:45:13;;;;;;;6.00;2.70;;;;;;;21.25;56.59;101753.00;1225564;22;22097;-81
2021/07/22 06:54:21;;;;;;;6.10;2.20;;;;;;;21.52;56.88;101755.22;1229118;22;21481;-81
2021/07/22 07:00:22;;;;;;;4.35;1.83;;;;;;;21.70;56.63;101756.91;1228787;22;21389;-81
2021/07/22 07:03:14;;;;;;;4.47;1.95;;;;;;;21.78;56.59;101760.03;1215298;22;21479;-81
2021/07/22 07:21:03;;;;;;;3.80;1.60;;;;;;;22.27;58.09;101747.63;3620268;39;20052;-81
2021/07/22 07:26:23;;;;;;;5.88;1.95;;;;;;;22.36;59.17;101735.63;2506756;22;20047;-77
2021/07/22 07:28:50;;;;;;;5.13;2.27;;;;;;;22.42;59.64;101731.75;3611121;39;20051;-77
2021/07/22 07:31:21;;;;;;;5.03;2.38;;;;;;;22.53;58.24;101740.84;3609264;39;20298;-77
2021/07/22 07:33:50;;;;;;;7.28;2.38;;;;;;;22.61;59.64;101731.56;3614490;39;20045;-77
2021/07/22 07:36:17;;;;;;;4.88;2.50;;;;;;;22.67;58.41;101728.56;3602892;39;20071;-77
2021/07/22 07:38:44;;;;;;;5.50;2.50;;;;;;;22.76;59.07;101728.06;3612041;39;20098;-77
2021/07/22 07:41:11;;;;;;;6.28;2.30;;;;;;;22.88;57.78;101737.13;3617844;39;20086;-76
2021/07/22 07:43:39;;;;;;;6.43;2.30;;;;;;;23.00;57.89;101739.97;3605139;39;20061;-77
2021/07/22 07:46:10;;;;;;;5.28;2.38;;;;;;;23.13;57.38;101741.91;3619261;39;20077;-76
2021/07/22 07:48:37;;;;;;;4.30;1.85;;;;;;;23.22;58.16;101741.38;3610900;39;20067;-77
2021/07/22 07:51:10;;;;;;;4.20;1.90;;;;;;;23.35;56.00;101737.03;3618751;39;20043;-77
2021/07/22 07:53:37;;;;;;;7.03;2.30;;;;;;;23.41;57.30;101741.97;3603905;39;20058;-76
2021/07/22 07:56:07;;;;;;;5.07;2.35;;;;;;;23.52;56.24;101736.88;3610067;39;20057;-76
2021/07/22 07:58:34;;;;;;;6.55;2.25;;;;;;;23.58;56.60;101737.47;3607645;39;20056;-76
2021/07/22 08:01:01;;;;;;;4.85;1.80;;;;;;;23.74;56.01;101738.25;3613014;39;20067;-77
2021/07/22 08:03:29;;;;;;;6.15;2.58;;;;;;;23.87;55.65;101747.19;3599014;39;20082;-78
2021/07/22 08:05:58;;;;;;;6.07;3.08;;;;;;;23.98;55.73;101742.09;3618233;39;20056;-77
2021/07/22 08:08:25;;;;;;;7.45;1.95;;;;;;;24.11;55.35;101757.31;3624720;39;20059;-78
2021/07/22 08:10:57;;;;;;;5.30;2.15;;;;;;;24.22;55.26;101752.16;3617770;39;20062;-78
2021/07/22 08:13:25;;;;;;;9.00;3.40;;;;;;;24.34;54.88;101741.56;3617799;39;20054;-77
2021/07/22 08:15:52;;;;;;;5.38;2.13;;;;;;;24.48;54.37;101751.41;3602333;39;20051;-78
2021/07/22 08:18:19;;;;;;;4.05;1.60;;;;;;;24.61;53.89;101739.91;3615710;39;20062;-78
2021/07/22 08:20:46;;;;;;;6.45;2.53;;;;;;;24.73;53.43;101739.94;3612968;39;20062;-78
2021/07/22 08:23:13;;;;;;;6.38;2.22;;;;;;;24.83;52.20;101733.03;3612158;39;20074;-78
2021/07/22 08:25:40;;;;;;;6.35;2.70;;;;;;;24.95;51.85;101734.06;3623032;39;20086;-79
2021/07/22 08:28:11;;;;;;;11.35;3.30;;;;;;;25.18;52.42;101734.34;3613615;39;20049;-78
2021/07/22 08:30:38;;;;;;;7.57;3.08;;;;;;;25.24;51.27;101728.56;3607729;39;20051;-78
2021/07/22 08:33:04;;;;;;;7.53;3.03;;;;;;;25.30;51.63;101730.84;3605616;39;20047;-78
2021/07/22 08:35:31;;;;;;;9.00;3.40;;;;;;;25.40;51.68;101729.25;3616082;39;20089;-78
2021/07/22 08:37:58;;;;;;;6.90;2.92;;;;;;;25.58;51.99;101733.31;3610727;39;20050;-78
2021/07/22 08:40:26;;;;;;;6.55;2.97;;;;;;;25.66;51.71;101739.97;3628555;39;20475;-78
2021/07/22 08:43:01;;;;;;;5.45;2.70;;;;;;;25.79;51.41;101735.47;3617844;39;20059;-78
2021/07/22 08:45:28;;;;;;;6.65;2.80;;;;;;;25.84;51.14;101733.34;3614678;39;20105;-78
2021/07/22 08:47:57;;;;;;;6.93;3.15;;;;;;;25.94;50.95;101728.19;3614566;39;20061;-78
2021/07/22 08:50:24;;;;;;;7.20;3.03;;;;;;;26.00;50.19;101730.44;3600531;39;20572;-79
2021/07/22 08:52:51;;;;;;;5.80;2.80;;;;;;;26.08;49.76;101730.75;3608565;39;20047;-78
2021/07/22 08:55:19;;;;;;;5.50;2.67;;;;;;;26.16;49.72;101725.72;3610889;39;20062;-78
2021/07/22 08:57:47;;;;;;;9.02;3.10;;;;;;;26.27;49.80;101738.31;3610882;39;20066;-77
2021/07/22 09:00:17;;;;;;;6.82;2.67;;;;;;;26.37;49.75;101731.31;3619418;39;20540;-77
2021/07/22 09:02:44;;;;;;;6.47;2.95;;;;;;;26.36;48.90;101732.28;3613551;39;20439;-77
2021/07/22 09:05:12;;;;;;;6.82;3.38;;;;;;;26.40;49.39;101731.94;3616931;39;20091;-77
2021/07/22 09:07:39;;;;;;;6.93;2.95;;;;;;;26.51;49.32;101739.25;3613473;39;20078;-77
2021/07/22 09:10:06;;;;;;;;;;;;;;;26.71;48.82;101734.22;3618216;39;20150;-78
2021/07/22 09:12:38;;;;;;;5.00;2.22;;;;;;;26.75;49.04;101730.34;3612887;39;20386;-78
2021/07/22 09:15:07;;;;;;;6.38;2.55;;;;;;;26.76;48.73;101726.69;3615496;39;20054;-78
2021/07/22 09:17:55;;;;;;;7.28;3.20;;;;;;;26.86;48.65;101733.91;3610987;39;20505;-78
2021/07/22 09:20:27;;;;;;;5.88;3.00;;;;;;;27.00;48.70;101735.56;3611015;39;20128;-78
2021/07/22 09:22:54;;;;;;;5.57;2.70;;;;;;;27.03;48.69;101738.03;3622845;39;20091;-78
2021/07/22 09:25:42;;;;;;;7.35;3.58;;;;;;;27.13;48.09;101717.63;3612598;39;20127;-78
2021/07/22 09:28:20;;;;;;;7.63;3.13;;;;;;;27.34;48.23;101727.66;3612548;39;20140;-78
2021/07/22 09:30:54;;;;;;;6.05;2.90;;;;;;;27.55;48.34;101731.34;3601432;39;20054;-77
2021/07/22 09:33:40;;;;;;;7.03;3.10;;;;;;;27.79;47.84;101733.97;3603672;39;20062;-77
2021/07/22 09:36:27;;;;;;;6.63;3.35;;;;;;;27.87;48.35;101725.31;3615832;39;20059;-79
2021/07/22 09:39:21;;;;;;;6.40;2.88;;;;;;;28.29;47.31;101736.28;3625754;39;20073;-78
2021/07/22 09:42:03;;;;;;;5.68;2.75;;;;;;;28.52;47.26;101737.94;3604418;39;20113;-78
2021/07/22 09:44:31;;;;;;;7.75;3.70;;;;;;;28.66;45.90;101729.63;3623594;39;20097;-78
2021/07/22 09:47:00;;;;;;;5.70;3.05;;;;;;;28.83;45.54;101721.97;3624393;39;20046;-78
2021/07/22 09:49:38;;;;;;;9.73;3.88;;;;;;;29.16;45.03;101732.59;3622880;39;20105;-78
2021/07/22 09:52:18;;;;;;;7.50;3.30;;;;;;;29.39;44.99;101724.38;3605868;39;20062;-78
2021/07/22 09:54:45;;;;;;;6.50;3.22;;;;;;;29.48;44.07;101720.91;3599020;39;20422;-78
2021/07/22 09:57:22;;;;;;;8.35;3.22;;;;;;;29.76;43.99;101729.31;3600911;39;20043;-78
2021/07/22 09:59:50;;;;;;;;;;;;;;;30.07;44.59;101727.47;3617272;39;20051;-78
2021/07/22 10:02:23;;;;;;;7.00;3.35;;;;;;;30.26;43.72;101722.13;3621279;39;20097;-78
2021/07/22 10:04:53;;;;;;;9.60;4.13;;;;;;;30.49;42.22;101728.16;3610375;39;20051;-78
2021/07/22 10:07:21;;;;;;;9.27;4.05;;;;;;;30.65;40.70;101723.06;3614038;39;20108;-78
2021/07/22 10:09:53;;;;;;;7.10;3.83;;;;;;;30.95;40.96;101721.25;3616039;39;20416;-78
2021/07/22 10:12:22;;;;;;;8.95;4.10;;;;;;;31.06;40.13;101721.09;3614873;39;20059;-78
2021/07/22 10:14:56;;;;;;;7.10;4.13;;;;;;;31.28;39.52;101725.38;3612546;39;20048;-78
2021/07/22 10:17:27;;;;;;;9.27;4.40;;;;;;;31.39;39.94;101717.09;3607257;39;20092;-78
2021/07/22 10:19:58;;;;;;;11.30;4.80;;;;;;;31.54;39.81;101725.59;3619593;39;20074;-78
2021/07/22 10:22:25;;;;;;;9.88;4.47;;;;;;;31.58;39.33;101729.72;3610585;39;20143;-77
2021/07/22 10:24:54;;;;;;;8.07;4.20;;;;;;;31.75;39.60;101728.91;3617103;39;20043;-78
2021/07/22 10:27:22;;;;;;;8.95;5.10;;;;;;;31.88;39.33;101727.75;3591171;39;20121;-78
2021/07/22 10:29:51;;;;;;;9.25;4.30;;;;;;;32.13;38.88;101732.47;3617869;39;20088;-78
2021/07/22 10:32:21;;;;;;;9.45;5.03;;;;;;;32.25;39.06;101730.44;3614272;39;20062;-78
2021/07/22 10:34:51;;;;;;;8.77;4.78;;;;;;;32.50;37.57;101735.13;3615341;39;20051;-78
2021/07/22 10:37:20;;;;;;;7.90;4.03;;;;;;;32.72;38.18;101739.22;3616808;39;20066;-78
2021/07/22 10:40:07;;;;;;;8.45;4.30;;;;;;;33.12;38.87;101729.81;3620656;39;20145;-78
2021/07/22 10:42:46;;;;;;;8.88;4.47;;;;;;;33.47;39.12;101738.88;3611918;39;20078;-78
2021/07/22 10:45:24;;;;;;;7.88;3.95;;;;;;;33.82;38.91;101733.34;3613763;39;20091;-78
2021/07/22 10:48:02;;;;;;;9.13;5.03;;;;;;;34.13;38.51;101738.22;3614192;39;20067;-78
2021/07/22 10:50:42;;;;;;;9.98;5.32;;;;;;;34.40;37.64;101745.25;3613991;39;20055;-79
2021/07/22 10:53:10;;;;;;;14.75;5.13;;;;;;;34.51;37.67;101744.13;3600168;39;20438;-78
2021/07/22 10:55:46;;;;;;;8.60;4.85;;;;;;;34.80;36.98;101747.22;3619509;39;20270;-78
2021/07/22 10:58:24;;;;;;;8.52;4.53;;;;;;;35.02;36.88;101742.16;3597337;39;20055;-79
2021/07/22 11:00:51;;;;;;;11.00;4.90;;;;;;;34.96;36.58;101732.84;3609402;39;20127;-78
2021/07/22 11:03:37;;;;;;;11.93;5.38;;;;;;;35.18;36.97;101742.19;3611211;39;20458;-79
2021/07/22 11:06:05;;;;;;;9.47;5.07;;;;;;;35.10;35.54;101742.19;3602429;39;20123;-78
2021/07/22 11:08:36;;;;;;;10.70;5.40;;;;;;;35.17;35.57;101734.19;3608066;39;20111;-78
2021/07/22 11:11:11;;;;;;;9.82;5.18;;;;;;;35.35;36.08;101740.28;3612566;39;20090;-78
2021/07/22 11:13:38;;;;;;;13.73;6.25;;;;;;;35.50;34.97;101745.91;3599645;39;20088;-78
2021/07/22 11:16:06;;;;;;;8.13;4.28;;;;;;;35.80;34.63;101734.25;3622705;39;20118;-78
2021/07/22 11:18:45;;;;;;;7.90;4.63;;;;;;;36.20;34.96;101737.84;3620966;39;20042;-78
2021/07/22 11:21:13;;;;;;;8.10;4.65;;;;;;;36.43;33.30;101737.06;3612402;39;20069;-79
2021/07/22 11:23:40;;;;;;;8.82;5.22;;;;;;;36.73;34.54;101732.59;3622163;39;20062;-78
2021/07/22 11:26:07;;;;;;;9.02;5.13;;;;;;;37.07;32.70;101734.91;3612818;39;20050;-78
2021/07/22 11:28:35;;;;;;;8.18;4.82;;;;;;;37.40;32.48;101728.13;3620873;39;20059;-79
2021/07/22 11:31:09;;;;;;;7.72;4.40;;;;;;;37.81;32.73;101724.09;3626170;39;20075;-79
2021/07/22 11:33:38;;;;;;;7.95;4.88;;;;;;;38.02;31.94;101729.66;3611450;39;20054;-79
2021/07/22 11:36:08;;;;;;;13.98;5.88;;;;;;;38.25;31.92;101729.50;3616660;39;20051;-79
2021/07/22 11:38:38;;;;;;;9.45;5.18;;;;;;;38.47;31.47;101721.38;3617858;39;20066;-79
2021/07/22 11:41:13;;;;;;;8.77;5.18;;;;;;;38.62;31.06;101727.59;3603708;39;20067;-78
2021/07/22 11:43:43;;;;;;;8.95;4.45;;;;;;;38.51;30.64;101718.06;3620966;39;20130;-78
2021/07/22 11:46:12;;;;;;;9.57;4.57;;;;;;;38.49;31.25;101713.84;3619592;39;20063;-78
2021/07/22 11:48:41;;;;;;;8.68;5.00;;;;;;;38.45;30.03;101718.00;3612972;39;20764;-79
2021/07/22 11:51:13;;;;;;;7.43;4.15;;;;;;;38.63;30.66;101715.69;3619335;39;20061;-78
2021/07/22 11:53:41;;;;;;;10.73;4.38;;;;;;;38.68;29.89;101718.66;3621965;39;20060;-78
2021/07/22 11:56:19;;;;;;;8.65;4.68;;;;;;;38.91;29.93;101724.78;3615026;39;20051;-79
2021/07/22 11:58:49;;;;;;;7.53;4.55;;;;;;;39.20;28.59;101722.94;3610401;39;20046;-78
2021/07/22 12:01:17;;;;;;;7.25;4.10;;;;;;;39.48;28.83;101711.97;3608984;39;20098;-78
2021/07/22 12:03:46;;;;;;;8.55;5.28;;;;;;;39.82;27.46;101711.13;3609196;39;20058;-79
2021/07/22 12:06:21;;;;;;;8.73;5.13;;;;;;;40.11;26.75;101712.75;3605479;39;20063;-79
2021/07/22 12:09:01;;;;;;;8.10;4.87;;;;;;;40.45;28.21;101710.91;3597654;39;20055;-79
2021/07/22 12:11:29;;;;;;;8.10;4.68;;;;;;;40.43;26.72;101702.94;3609792;39;20277;-79
2021/07/22 12:13:56;;;;;;;7.70;4.75;;;;;;;40.57;26.17;101697.50;3617944;39;20065;-79
2021/07/22 12:16:25;;;;;;;7.55;4.18;;;;;;;40.84;26.36;101695.63;3615590;39;20058;-79
2021/07/22 12:18:53;;;;;;;7.47;4.22;;;;;;;41.02;25.19;101700.50;3604285;39;20107;-79
2021/07/22 12:21:23;;;;;;;6.47;3.75;;;;;;;41.12;25.63;101689.94;3616929;39;20099;-79
2021/07/22 12:23:51;;;;;;;8.07;4.47;;;;;;;41.24;25.25;101693.72;3613071;39;20057;-79
2021/07/22 12:26:19;;;;;;;7.47;4.55;;;;;;;41.43;25.43;101692.03;3614534;39;20394;-79
2021/07/22 12:29:00;;;;;;;7.80;4.35;;;;;;;41.87;26.16;101698.63;3617639;39;20169;-78
2021/07/22 12:31:37;;;;;;;7.32;4.13;;;;;;;42.05;25.71;101697.91;3619920;39;20066;-79
2021/07/22 12:34:05;;;;;;;13.45;4.28;;;;;;;41.96;23.97;101692.66;3614978;39;20062;-78
2021/07/22 12:36:33;;;;;;;7.75;4.28;;;;;;;42.08;22.81;101694.75;3610470;39;20415;-79
2021/07/22 12:39:22;;;;;;;8.25;4.75;;;;;;;42.39;24.79;101691.19;3616048;39;20423;-79
2021/07/22 12:41:49;;;;;;;7.30;4.25;;;;;;;42.40;23.51;101688.22;3610056;39;20058;-79
2021/07/22 12:44:49;;;;;;;8.52;4.60;;;;;;;42.64;25.07;101688.50;3618133;39;20075;-79
2021/07/22 12:47:27;;;;;;;7.35;4.70;;;;;;;42.69;24.97;101686.75;3611303;39;21543;-79
2021/07/22 12:49:54;;;;;;;8.77;4.88;;;;;;;42.60;23.74;101677.13;3612090;39;20059;-79
2021/07/22 12:52:47;;;;;;;8.97;4.63;;;;;;;42.86;24.77;101680.69;3169019;39;10000924;-79
2021/07/22 12:55:27;;;;;;;8.88;4.53;;;;;;;42.91;24.28;101683.59;2730658;39;10001052;-78
2021/07/22 12:57:54;;;;;;;6.85;4.38;;;;;;;42.81;23.44;101678.63;3596275;39;20074;-79
2021/07/22 13:00:21;;;;;;;7.50;3.85;;;;;;;42.81;24.00;101673.13;3614040;39;20059;-78
2021/07/22 13:02:59;;;;;;;6.43;3.88;;;;;;;42.94;23.93;101689.50;3602619;39;20063;-79
2021/07/22 13:05:27;;;;;;;6.05;3.60;;;;;;;42.75;24.42;101676.78;3612285;39;20067;-79
2021/07/22 13:07:54;;;;;;;7.05;4.20;;;;;;;42.68;23.73;101667.75;3603661;39;20056;-79
2021/07/22 13:10:41;;;;;;;8.48;4.45;;;;;;;42.61;23.96;101672.47;3597798;39;20051;-78
2021/07/22 13:13:09;;;;;;;7.63;4.35;;;;;;;42.47;24.20;101667.03;3608467;39;20103;-79
2021/07/22 13:15:36;;;;;;;8.77;4.55;;;;;;;42.37;24.82;101666.69;3602341;39;20106;-79
2021/07/22 13:18:03;;;;;;;8.95;4.43;;;;;;;42.31;24.03;101655.75;3590408;39;20147;-79
2021/07/22 13:20:29;;;;;;;8.02;4.88;;;;;;;42.30;23.96;101654.91;3610056;39;20061;-79
2021/07/22 13:22:56;;;;;;;7.63;4.40;;;;;;;42.27;23.50;101655.34;3612422;39;20066;-79
2021/07/22 13:25:23;;;;;;;6.80;3.90;;;;;;;42.25;24.28;101662.97;3600679;39;20062;-79
2021/07/22 13:27:50;;;;;;;7.78;4.68;;;;;;;42.26;25.18;101647.34;3601988;39;20104;-79
2021/07/22 13:30:16;;;;;;;7.90;4.63;;;;;;;42.38;23.88;101662.03;3611051;39;20067;-79
2021/07/22 13:32:44;;;;;;;7.05;4.50;;;;;;;42.52;22.96;101657.28;3603760;39;20095;-79
2021/07/22 13:35:12;;;;;;;7.57;4.53;;;;;;;42.61;22.69;101656.81;3587732;39;20107;-79
2021/07/22 13:37:40;;;;;;;7.88;4.28;;;;;;;42.64;23.01;101650.03;3611452;39;20108;-79
2021/07/22 13:40:09;;;;;;;7.25;4.25;;;;;;;42.69;21.80;101652.97;3606365;39;20078;-79
2021/07/22 13:42:39;;;;;;;7.75;4.03;;;;;;;42.73;22.37;101655.03;3612745;39;20055;-79
2021/07/22 13:45:07;;;;;;;7.15;4.13;;;;;;;42.82;21.39;101639.09;3607610;39;20043;-79
2021/07/22 13:47:34;;;;;;;8.02;4.00;;;;;;;42.87;21.88;101633.75;3600030;39;20068;-79
2021/07/22 13:50:02;;;;;;;6.95;4.13;;;;;;;42.92;21.84;101639.41;3612455;39;20079;-79
2021/07/22 13:52:30;;;;;;;8.75;3.90;;;;;;;42.93;21.11;101632.00;3601022;39;20063;-79
2021/07/22 13:54:57;;;;;;;8.00;4.35;;;;;;;42.87;21.52;101628.25;3603766;39;20086;-78
2021/07/22 13:57:24;;;;;;;6.70;4.15;;;;;;;42.83;21.39;101620.69;3612546;39;20063;-79
2021/07/22 13:59:50;;;;;;;8.15;4.70;;;;;;;42.81;21.77;101623.66;3603389;39;20063;-79
2021/07/22 14:02:20;;;;;;;7.43;4.40;;;;;;;42.74;21.94;101617.41;3602995;39;20051;-78
2021/07/22 14:04:48;;;;;;;7.63;4.95;;;;;;;42.76;21.15;101623.50;3593283;39;20059;-79
2021/07/22 14:07:16;;;;;;;8.18;5.25;;;;;;;42.76;20.97;101615.25;3611901;39;20058;-79
2021/07/22 14:09:43;;;;;;;7.80;4.85;;;;;;;42.85;21.36;101611.16;3608393;39;20083;-79
2021/07/22 14:12:10;;;;;;;8.45;5.05;;;;;;;42.86;22.54;101621.09;3611930;39;20087;-79
2021/07/22 14:14:37;;;;;;;11.02;4.78;;;;;;;42.90;21.56;101616.81;3605336;39;20051;-78
2021/07/22 14:17:04;;;;;;;7.57;4.40;;;;;;;42.88;22.05;101618.94;3611795;39;20047;-79
2021/07/22 14:19:31;;;;;;;8.25;5.22;;;;;;;42.86;21.54;101623.81;3607093;39;20065;-79
2021/07/22 14:21:58;;;;;;;6.95;4.38;;;;;;;42.75;22.52;101608.09;3605361;39;20532;-78
2021/07/22 14:24:27;;;;;;;7.05;4.60;;;;;;;42.72;23.33;101611.28;3613641;39;20053;-79
2021/07/22 14:26:55;;;;;;;7.93;4.78;;;;;;;42.80;23.69;101611.00;3603274;39;20055;-79
2021/07/22 14:29:25;;;;;;;7.78;4.97;;;;;;;43.02;23.75;101616.09;3602915;39;20139;-79
2021/07/22 14:31:52;;;;;;;6.65;4.47;;;;;;;43.12;23.38;101613.66;3606950;39;20046;-79
2021/07/22 14:34:19;;;;;;;8.13;5.00;;;;;;;43.37;23.36;101610.81;3608150;39;20039;-79
2021/07/22 14:36:48;;;;;;;8.25;5.05;;;;;;;43.64;23.36;101614.91;3605497;39;20079;-80
2021/07/22 14:39:15;;;;;;;10.30;5.18;;;;;;;43.89;22.24;101608.47;3608712;39;20480;-79
2021/07/22 14:41:43;;;;;;;8.50;5.05;;;;;;;44.15;22.28;101612.72;3600018;39;20110;-79
2021/07/22 14:44:11;;;;;;;7.70;5.28;;;;;;;44.38;21.33;101600.97;3614740;39;20092;-79
2021/07/22 14:46:39;;;;;;;9.45;5.55;;;;;;;44.60;21.55;101606.72;3603662;39;20051;-79
2021/07/22 14:49:06;;;;;;;8.27;5.40;;;;;;;44.80;20.75;101598.94;3612296;39;20055;-79
2021/07/22 14:51:32;;;;;;;7.78;4.80;;;;;;;44.95;21.20;101604.81;3614497;39;20804;-78
2021/07/22 14:54:00;;;;;;;8.02;5.00;;;;;;;45.12;20.77;101601.31;3613408;39;20073;-78
2021/07/22 14:56:27;;;;;;;7.20;4.68;;;;;;;45.24;21.01;101594.72;3610699;39;20063;-79
2021/07/22 14:58:53;;;;;;;7.78;5.22;;;;;;;45.39;20.86;101594.22;3591261;39;20066;-79
2021/07/22 15:01:20;;;;;;;7.22;4.68;;;;;;;45.53;20.56;101598.38;3615797;39;20062;-78
2021/07/22 15:03:47;;;;;;;7.75;4.90;;;;;;;45.70;20.13;101597.56;3611813;39;20118;-78
2021/07/22 15:06:14;;;;;;;7.65;4.57;;;;;;;45.81;20.99;101599.47;3612716;39;20059;-79
2021/07/22 15:08:45;;;;;;;11.00;5.22;;;;;;;45.94;20.16;101601.91;3611184;39;20074;-79
2021/07/22 15:11:12;;;;;;;9.93;4.95;;;;;;;45.92;19.18;101590.28;3607915;39;20054;-79
2021/07/22 15:13:41;;;;;;;9.27;5.32;;;;;;;45.79;19.94;101591.44;3604301;39;20052;-78
2021/07/22 15:16:08;;;;;;;7.50;5.00;;;;;;;45.65;20.06;101589.19;3608067;39;20042;-78
2021/07/22 15:18:36;;;;;;;8.13;4.95;;;;;;;45.43;20.22;101587.13;3604084;39;20080;-78
2021/07/22 15:21:03;;;;;;;7.85;5.25;;;;;;;45.25;19.50;101590.03;3598809;39;20058;-79
2021/07/22 15:23:30;;;;;;;8.68;5.30;;;;;;;45.04;19.96;101573.06;3604666;39;20051;-79
2021/07/22 15:25:56;;;;;;;9.68;5.32;;;;;;;44.78;19.48;101581.81;3605514;39;20090;-78
2021/07/22 15:28:23;;;;;;;11.38;5.40;;;;;;;44.60;19.38;101587.41;3611956;39;20059;-78
2021/07/22 15:30:50;;;;;;;7.68;5.22;;;;;;;44.43;20.35;101581.81;3598177;39;20074;-78
2021/07/22 15:33:16;;;;;;;7.45;4.93;;;;;;;44.30;20.70;101588.34;3605834;39;20035;-79
2021/07/22 15:35:43;;;;;;;8.50;5.70;;;;;;;44.16;20.24;101581.38;3592218;39;20039;-78
2021/07/22 15:38:10;;;;;;;7.25;4.97;;;;;;;43.93;20.99;101583.00;3607397;39;20047;-79
2021/07/22 15:40:38;;;;;;;7.80;4.80;;;;;;;43.73;21.30;101576.91;3609967;39;20083;-78
2021/07/22 15:43:05;;;;;;;8.48;4.53;;;;;;;43.59;21.46;101569.94;3603984;39;20163;-78
2021/07/22 15:45:32;;;;;;;9.75;5.07;;;;;;;43.50;21.38;101573.03;3609239;39;20047;-78
2021/07/22 15:47:59;;;;;;;8.40;5.15;;;;;;;43.36;20.95;101574.22;3605111;39;20342;-79
2021/07/22 15:50:26;;;;;;;8.20;4.90;;;;;;;43.10;21.73;101569.06;3609169;39;20405;-79
2021/07/22 15:52:54;;;;;;;8.85;5.20;;;;;;;42.85;21.76;101564.44;3603911;39;20084;-78
2021/07/22 15:55:21;;;;;;;10.55;5.90;;;;;;;42.63;22.42;101568.69;3609265;39;20343;-79
2021/07/22 15:57:50;;;;;;;9.25;5.20;;;;;;;42.36;21.98;101559.84;3610280;39;20176;-78
2021/07/22 16:00:18;;;;;;;9.15;5.15;;;;;;;42.12;22.85;101562.31;3603685;39;20113;-78
2021/07/22 16:02:45;;;;;;;8.90;5.30;;;;;;;41.96;23.24;101558.22;3605496;39;20072;-78
2021/07/22 16:05:13;;;;;;;8.20;5.32;;;;;;;41.93;23.69;101555.94;3602062;39;20065;-79
2021/07/22 16:07:41;;;;;;;9.50;6.28;;;;;;;41.96;23.44;101560.94;3594369;39;20086;-78
2021/07/22 16:10:09;;;;;;;9.93;5.95;;;;;;;41.98;22.86;101547.88;3609747;39;20055;-79
2021/07/22 16:12:36;;;;;;;11.65;5.50;;;;;;;41.96;22.52;101555.47;3604393;39;20061;-78
2021/07/22 16:15:04;;;;;;;9.95;5.75;;;;;;;41.91;22.79;101547.06;3605717;39;20063;-78
2021/07/22 16:17:30;;;;;;;10.40;5.53;;;;;;;41.77;22.93;101542.75;3595131;39;20061;-79
2021/07/22 16:19:58;;;;;;;8.88;5.22;;;;;;;41.47;23.26;101540.56;3611888;39;20345;-79
2021/07/22 16:22:26;;;;;;;8.68;5.13;;;;;;;41.21;23.79;101543.38;3594221;39;20066;-78
2021/07/22 16:24:53;;;;;;;14.50;6.35;;;;;;;41.01;24.04;101539.88;3610845;39;20051;-78
2021/07/22 16:27:20;;;;;;;11.23;5.38;;;;;;;40.92;23.81;101534.63;3610245;39;20069;-79
2021/07/22 16:29:47;;;;;;;10.90;5.90;;;;;;;40.88;24.60;101535.25;3607466;39;20055;-78
2021/07/22 16:32:14;;;;;;;12.75;5.75;;;;;;;40.82;24.71;101531.47;3611525;39;20035;-79
2021/07/22 16:34:43;;;;;;;11.20;5.35;;;;;;;40.72;25.01;101537.41;3596744;39;20760;-78
2021/07/22 16:37:10;;;;;;;11.65;6.05;;;;;;;40.65;23.96;101530.25;3611203;39;20042;-78
2021/07/22 16:39:36;;;;;;;10.48;6.28;;;;;;;40.58;24.72;101534.91;3607355;39;20399;-78
2021/07/22 16:42:03;;;;;;;8.27;5.38;;;;;;;40.43;24.28;101527.72;3598852;39;20491;-78
2021/07/22 16:44:31;;;;;;;9.65;6.30;;;;;;;40.37;24.80;101536.78;3602539;39;20105;-79
2021/07/22 16:46:58;;;;;;;10.27;5.75;;;;;;;40.30;24.48;101518.66;3576894;39;20157;-78
2021/07/22 16:49:25;;;;;;;10.70;6.47;;;;;;;40.29;24.83;101531.50;3598318;39;20048;-79
2021/07/22 16:51:52;;;;;;;11.35;6.78;;;;;;;40.23;25.07;101521.41;3602302;39;20051;-78
2021/07/22 16:54:18;;;;;;;11.90;6.57;;;;;;;40.16;24.70;101523.31;3605662;39;20688;-79
2021/07/22 16:56:45;;;;;;;12.10;6.88;;;;;;;40.07;24.99;101521.84;3598606;39;20087;-76
2021/07/22 16:59:12;;;;;;;11.05;6.13;;;;;;;39.91;25.65;101518.44;3599593;39;20091;-76
2021/07/22 17:01:39;;;;;;;14.45;6.80;;;;;;;39.70;25.78;101515.88;3593441;39;20047;-76
2021/07/22 17:04:06;;;;;;;10.88;6.30;;;;;;;39.50;26.64;101514.97;3588577;39;20059;-77
2021/07/22 17:06:33;;;;;;;12.90;6.80;;;;;;;39.28;26.59;101504.16;3592655;39;20059;-76
2021/07/22 17:09:02;;;;;;;9.27;5.40;;;;;;;39.10;26.94;101509.31;3587128;39;20055;-76
2021/07/22 17:11:29;;;;;;;11.07;7.22;;;;;;;38.92;27.22;101518.88;3603111;39;20045;-77
2021/07/22 17:13:57;;;;;;;12.88;6.85;;;;;;;38.69;26.99;101512.84;3594931;39;20051;-77
2021/07/22 17:16:24;;;;;;;13.40;7.95;;;;;;;38.43;27.77;101516.25;3599061;39;20083;-76
2021/07/22 17:18:51;;;;;;;11.77;7.03;;;;;;;38.21;28.17;101503.66;3602668;39;20054;-76
2021/07/22 17:21:18;;;;;;;10.77;6.88;;;;;;;38.03;28.80;101501.41;3585869;39;20071;-76
2021/07/22 17:23:44;;;;;;;12.40;7.35;;;;;;;37.85;28.92;101499.13;3601090;39;20167;-77
2021/07/22 17:26:11;;;;;;;11.55;7.25;;;;;;;37.64;29.09;101503.50;3589352;39;20086;-76
2021/07/22 17:28:38;;;;;;;12.70;7.55;;;;;;;37.39;29.04;101494.84;3595058;39;20501;-76
2021/07/22 17:31:05;;;;;;;12.40;7.80;;;;;;;37.21;29.42;101502.56;3589160;39;20148;-77
2021/07/22 17:33:32;;;;;;;13.13;7.53;;;;;;;36.99;29.79;101504.38;3590863;39;20048;-76
2021/07/22 17:36:02;;;;;;;12.10;7.70;;;;;;;36.80;30.76;101504.91;3600792;39;20118;-76
2021/07/22 17:38:29;;;;;;;11.38;6.90;;;;;;;36.69;30.57;101506.22;3592376;39;20068;-77
2021/07/22 17:40:55;;;;;;;11.82;7.50;;;;;;;36.56;31.12;101503.31;3601592;39;20067;-76
2021/07/22 17:43:23;;;;;;;10.95;6.88;;;;;;;36.47;31.15;101496.25;3595521;39;20061;-77